Terminal Aerodrome Forecast
Issued by NWS Wakefield, VA

Home | Current Version | Previous Version | Text Only | Print | Product List | Glossary On
Versions: 1 2 3 4 5 6 7 8 9 10 11 12 13 14 15 16
600
FTUS41 KAKQ 061735
TAFECG
TAF
KECG 061735Z 0618/0718 08012G20KT 4SM -RA BKN007 OVC012
     FM062200 04011KT 3SM RA BR OVC007
     FM070100 28009KT P6SM OVC006
     FM071000 31008KT P6SM BKN005
     FM071500 34009KT P6SM BKN006=

USA.gov is the U.S. government's official web portal to all federal, state and local government web resources and services.